Time;durP1;ratioP1;P1;durP2;ratioP2;P2;SDS_P1;SDS_P2;PMS_P1;PMS_P2;Temp;Humidity;BMP_temperature;BMP_pressure;BME280_temperature;BME280_humidity;BME280_pressure;Samples;Min_cycle;Max_cycle;Signal;HPM_P1;HPM_P2
2022/05/26 00:01:26;;;;;;;2.60;1.27;;;14.50;57.80;;;;;;5046413;28;20071;-80
2022/05/26 00:03:53;;;;;;;4.15;1.90;;;14.50;57.80;;;;;;5030674;28;20036;-80
2022/05/26 00:06:22;;;;;;;4.35;1.55;;;14.50;57.90;;;;;;5046766;28;20037;-80
2022/05/26 00:08:49;;;;;;;5.07;1.60;;;14.50;57.80;;;;;;5040248;28;20042;-81
2022/05/26 00:11:19;;;;;;;2.05;1.50;;;14.50;57.90;;;;;;5046748;28;20033;-80
2022/05/26 00:13:45;;;;;;;2.75;1.52;;;14.50;58.00;;;;;;5044461;28;20029;-81
2022/05/26 00:16:12;;;;;;;4.15;1.73;;;14.50;58.00;;;;;;5043261;28;20641;-80
2022/05/26 00:18:38;;;;;;;3.13;1.42;;;14.50;58.00;;;;;;5040530;28;20034;-80
2022/05/26 00:21:05;;;;;;;2.30;1.90;;;14.40;57.90;;;;;;5043917;28;20033;-80
2022/05/26 00:23:32;;;;;;;2.13;1.63;;;14.50;57.90;;;;;;5040480;28;20499;-81
2022/05/26 00:25:58;;;;;;;3.58;1.73;;;14.40;57.90;;;;;;5042425;28;20028;-81
2022/05/26 00:28:24;;;;;;;2.88;1.65;;;14.40;57.90;;;;;;5045984;28;20040;-80
2022/05/26 00:30:49;;;;;;;1.75;1.42;;;14.40;57.90;;;;;;5042683;28;20030;-79
2022/05/26 00:33:17;;;;;;;2.85;1.73;;;14.40;58.00;;;;;;5043762;28;20029;-80
2022/05/26 00:35:43;;;;;;;5.30;1.60;;;14.40;58.00;;;;;;5040889;28;20025;-80
2022/05/26 00:38:11;;;;;;;3.15;1.92;;;14.40;58.10;;;;;;5029307;28;20047;-80
2022/05/26 00:40:38;;;;;;;5.22;2.30;;;14.40;58.20;;;;;;5026743;28;20041;-81
2022/05/26 00:43:05;;;;;;;5.38;1.92;;;14.40;58.20;;;;;;5040934;28;20052;-80
2022/05/26 00:45:54;;;;;;;4.60;1.92;;;14.40;58.20;;;;;;5042485;28;20525;-80
2022/05/26 00:48:24;;;;;;;3.58;1.42;;;14.30;58.30;;;;;;5044393;28;20065;-79
2022/05/26 00:51:01;;;;;;;4.47;1.73;;;14.30;58.30;;;;;;5039759;28;20041;-80
2022/05/26 00:53:51;;;;;;;3.33;1.80;;;14.30;58.30;;;;;;5044348;28;20041;-80
2022/05/26 00:56:32;;;;;;;4.75;2.00;;;14.30;58.40;;;;;;5046255;28;20111;-80
2022/05/26 00:59:05;;;;;;;2.35;2.10;;;14.30;58.50;;;;;;5027237;28;20071;-80
2022/05/26 01:01:31;;;;;;;3.00;1.90;;;14.20;58.50;;;;;;5042139;28;20047;-80
2022/05/26 01:04:06;;;;;;;6.65;2.15;;;14.30;58.60;;;;;;5044744;28;20097;-80
2022/05/26 01:06:59;;;;;;;3.05;2.13;;;14.30;58.70;;;;;;5057161;28;20036;-80
2022/05/26 01:09:25;;;;;;;5.32;2.13;;;14.20;58.70;;;;;;5039325;28;20040;-80
2022/05/26 01:11:51;;;;;;;4.25;2.65;;;14.20;58.80;;;;;;5042719;28;20041;-80
2022/05/26 01:14:22;;;;;;;4.93;2.42;;;14.20;58.90;;;;;;5041836;28;20195;-80
2022/05/26 01:16:51;;;;;;;4.72;2.38;;;14.10;59.00;;;;;;5058454;28;20036;-79
2022/05/26 01:19:40;;;;;;;4.43;2.05;;;14.10;59.00;;;;;;5042053;28;20045;-79
2022/05/26 01:22:33;;;;;;;5.25;2.50;;;14.20;59.10;;;;;;5041240;28;20034;-79
2022/05/26 01:25:14;;;;;;;4.18;2.75;;;14.10;59.10;;;;;;5038683;28;20091;-79
2022/05/26 01:27:46;;;;;;;3.30;2.20;;;14.10;59.20;;;;;;5024663;28;20512;-79
2022/05/26 01:30:20;;;;;;;5.47;2.83;;;14.10;59.20;;;;;;5028365;28;20511;-80
2022/05/26 01:32:55;;;;;;;4.47;2.50;;;14.10;59.20;;;;;;5028135;28;20450;-80
2022/05/26 01:35:59;;;;;;;3.35;2.10;;;14.10;59.30;;;;;;5043437;28;20068;-80
2022/05/26 01:38:44;;;;;;;4.63;2.15;;;14.20;59.40;;;;;;5042710;28;20051;-80
2022/05/26 01:41:22;;;;;;;4.82;2.55;;;14.10;59.40;;;;;;5041642;28;20810;-80
2022/05/26 01:43:58;;;;;;;3.97;2.65;;;14.10;60.00;;;;;;5043263;28;20541;-80
2022/05/26 01:46:39;;;;;;;4.57;2.70;;;14.10;59.40;;;;;;5044412;28;20029;-80
2022/05/26 01:49:33;;;;;;;4.78;3.10;;;14.10;59.60;;;;;;5039548;28;20052;-79
2022/05/26 01:52:31;;;;;;;6.63;2.90;;;14.10;59.60;;;;;;5040751;28;20041;-80
2022/05/26 01:55:11;;;;;;;3.55;2.65;;;14.10;59.60;;;;;;5039548;28;20839;-79
2022/05/26 01:57:43;;;;;;;4.18;2.72;;;14.10;59.50;;;;;;5039441;28;20075;-80
2022/05/26 02:00:17;;;;;;;5.22;2.95;;;14.10;59.40;;;;;;5055732;28;20034;-80
2022/05/26 02:02:51;;;;;;;3.42;2.75;;;14.10;59.50;;;;;;5040586;28;20071;-80
2022/05/26 02:05:26;;;;;;;4.03;2.58;;;14.10;59.50;;;;;;5041527;28;20025;-80
2022/05/26 02:08:40;;;;;;;4.40;2.75;;;14.10;59.50;;;;;;5039722;28;20029;-80
2022/05/26 02:11:20;;;;;;;4.28;2.95;;;14.10;59.60;;;;;;5046644;28;20048;-80
2022/05/26 02:13:52;;;;;;;4.20;2.60;;;14.00;59.50;;;;;;5042221;28;20518;-81
2022/05/26 02:16:36;;;;;;;5.40;2.58;;;14.00;59.60;;;;;;5038068;28;20049;-81
2022/05/26 02:19:14;;;;;;;6.28;2.70;;;14.00;59.70;;;;;;5003672;28;20033;-83
2022/05/26 02:22:17;;;;;;;3.75;3.05;;;14.00;59.70;;;;;;5041298;28;20032;-81
2022/05/26 02:24:49;;;;;;;3.42;2.75;;;14.10;59.70;;;;;;5042477;28;20044;-81
2022/05/26 02:27:15;;;;;;;5.32;2.50;;;14.10;59.70;;;;;;5041889;28;20036;-81
2022/05/26 02:29:59;;;;;;;4.90;2.80;;;14.10;59.60;;;;;;5043703;28;20534;-80
2022/05/26 02:32:35;;;;;;;3.58;2.70;;;14.10;59.60;;;;;;5011185;28;20040;-80
2022/05/26 02:35:06;;;;;;;4.97;2.97;;;14.10;59.60;;;;;;5036164;28;20431;-80
2022/05/26 02:37:35;;;;;;;6.45;2.92;;;14.10;59.60;;;;;;5040225;28;20128;-80
2022/05/26 02:40:01;;;;;;;5.55;2.97;;;14.10;59.60;;;;;;5039212;28;20033;-80
2022/05/26 02:42:28;;;;;;;6.28;2.95;;;14.10;59.60;;;;;;5037619;28;20086;-81
2022/05/26 02:44:54;;;;;;;7.72;3.10;;;14.10;59.60;;;;;;5039654;28;20067;-80
2022/05/26 02:47:37;;;;;;;4.80;2.47;;;14.10;59.60;;;;;;5040465;28;20029;-81
2022/05/26 02:50:48;;;;;;;4.78;2.90;;;14.10;59.60;;;;;;5039599;28;20037;-82
2022/05/26 02:53:34;;;;;;;2.47;2.28;;;14.20;59.70;;;;;;5039620;28;20591;-81
2022/05/26 02:56:05;;;;;;;5.70;2.88;;;14.10;59.70;;;;;;5040407;28;20037;-81
2022/05/26 02:58:47;;;;;;;5.63;3.10;;;14.10;59.70;;;;;;5038785;28;20041;-81
2022/05/26 03:01:16;;;;;;;6.78;3.13;;;14.20;59.90;;;;;;5043978;28;20036;-81
2022/05/26 03:03:54;;;;;;;3.40;2.70;;;14.20;60.00;;;;;;5039590;28;20086;-82
2022/05/26 03:06:33;;;;;;;5.20;3.08;;;14.20;60.00;;;;;;5042579;28;20076;-81
2022/05/26 03:09:01;;;;;;;5.95;2.90;;;14.30;60.00;;;;;;5043398;28;20040;-81
2022/05/26 03:11:28;;;;;;;5.47;3.03;;;14.30;60.00;;;;;;5043538;28;20037;-82
2022/05/26 03:13:55;;;;;;;8.27;3.65;;;14.30;59.90;;;;;;5047136;28;20037;-82
2022/05/26 03:16:21;;;;;;;6.53;3.17;;;14.30;59.80;;;;;;5041796;28;20064;-82
2022/05/26 03:18:47;;;;;;;5.47;2.92;;;14.30;59.60;;;;;;5042034;28;20423;-80
2022/05/26 03:21:14;;;;;;;4.00;2.80;;;14.30;59.40;;;;;;5047709;28;20708;-80
2022/05/26 03:23:40;;;;;;;4.28;2.55;;;14.40;59.40;;;;;;5043331;28;20036;-80
2022/05/26 03:26:07;;;;;;;3.63;2.90;;;14.40;59.30;;;;;;5043502;28;20408;-80
2022/05/26 03:28:33;;;;;;;4.20;2.80;;;14.40;59.30;;;;;;5043473;28;20029;-80
2022/05/26 03:30:59;;;;;;;4.78;2.67;;;14.40;59.40;;;;;;5043908;28;20515;-81
2022/05/26 03:40:45;;;;;;;5.53;2.80;;;14.40;59.30;;;;;;5047592;28;20128;-79
2022/05/26 03:41:41;;;;;;;4.50;3.05;;;14.50;59.20;;;;;;5043843;28;20037;-80
2022/05/26 03:44:08;;;;;;;7.68;2.60;;;14.50;59.20;;;;;;5043193;28;20064;-81
2022/05/26 03:46:34;;;;;;;4.32;2.83;;;14.50;59.20;;;;;;5044051;28;20128;-82
2022/05/26 03:49:00;;;;;;;4.93;2.53;;;14.60;59.20;;;;;;5044962;28;20501;-86
2022/05/26 03:51:26;;;;;;;4.80;2.88;;;14.60;59.20;;;;;;5043109;28;20032;-84
2022/05/26 03:53:53;;;;;;;4.85;2.53;;;14.70;59.10;;;;;;5046098;28;20029;-86
2022/05/26 03:56:19;;;;;;;4.60;2.70;;;14.70;59.00;;;;;;5045117;28;20446;-88
2022/05/26 03:58:45;;;;;;;3.17;2.33;;;14.80;58.90;;;;;;5042364;28;20041;-84
2022/05/26 04:01:10;;;;;;;4.40;2.53;;;14.90;58.50;;;;;;5044620;28;20028;-85
2022/05/26 04:03:37;;;;;;;4.90;2.80;;;15.00;58.40;;;;;;5026723;28;20036;-86
2022/05/26 04:06:03;;;;;;;4.78;2.72;;;15.00;58.20;;;;;;5043821;28;20090;-85
2022/05/26 04:08:29;;;;;;;6.68;3.03;;;15.10;58.00;;;;;;5049348;28;20119;-87
2022/05/26 04:10:55;;;;;;;6.47;3.00;;;15.10;58.00;;;;;;5045438;28;20123;-85
2022/05/26 04:13:21;;;;;;;4.85;3.00;;;15.10;57.80;;;;;;5042024;28;20112;-85
2022/05/26 04:15:47;;;;;;;5.18;3.13;;;15.20;57.80;;;;;;5041839;28;20411;-85
2022/05/26 04:18:13;;;;;;;4.30;2.58;;;15.20;57.60;;;;;;5037678;28;20119;-81
2022/05/26 04:20:39;;;;;;;5.05;2.80;;;15.30;57.50;;;;;;5043190;28;20029;-82
2022/05/26 04:23:05;;;;;;;5.00;2.40;;;15.30;57.20;;;;;;5041680;28;20036;-81
2022/05/26 04:25:31;;;;;;;5.35;3.15;;;15.40;57.20;;;;;;5043323;28;20029;-82
2022/05/26 04:27:57;;;;;;;4.45;2.55;;;15.40;57.10;;;;;;5045244;28;20033;-82
2022/05/26 04:30:24;;;;;;;6.13;2.90;;;15.40;57.00;;;;;;5040588;28;20084;-80
2022/05/26 04:32:50;;;;;;;5.43;2.97;;;15.50;56.90;;;;;;5028719;28;20067;-81
2022/05/26 04:35:17;;;;;;;4.68;3.25;;;15.60;56.80;;;;;;5042342;28;20032;-80
2022/05/26 04:37:43;;;;;;;4.50;3.00;;;15.60;56.60;;;;;;5041361;28;20120;-78
2022/05/26 04:40:10;;;;;;;6.15;2.50;;;15.60;57.00;;;;;;5042264;28;20083;-81
2022/05/26 04:42:38;;;;;;;6.35;2.60;;;15.70;56.30;;;;;;5043098;28;20447;-81
2022/05/26 04:45:07;;;;;;;4.80;2.70;;;15.80;56.00;;;;;;5041925;28;20033;-82
2022/05/26 04:47:33;;;;;;;4.85;2.72;;;15.90;55.90;;;;;;5042053;28;20059;-79
2022/05/26 04:49:58;;;;;;;4.15;2.28;;;15.90;55.80;;;;;;5024423;28;20056;-80
2022/05/26 04:52:25;;;;;;;3.20;2.17;;;16.00;55.60;;;;;;5028814;28;20033;-80
2022/05/26 04:54:54;;;;;;;5.35;2.58;;;16.10;55.60;;;;;;5040857;28;20511;-80
2022/05/26 04:57:23;;;;;;;4.32;2.60;;;16.20;55.30;;;;;;5025162;28;20123;-80
2022/05/26 04:59:50;;;;;;;3.80;2.00;;;16.30;55.10;;;;;;5045189;28;20459;-79
2022/05/26 05:02:18;;;;;;;4.05;2.05;;;16.50;54.80;;;;;;5045519;28;20033;-82
2022/05/26 05:04:46;;;;;;;3.72;2.20;;;16.60;54.70;;;;;;5039891;28;20033;-82
2022/05/26 05:07:12;;;;;;;4.40;2.22;;;16.70;54.60;;;;;;5041476;28;20025;-80
2022/05/26 05:09:39;;;;;;;6.20;2.45;;;16.80;54.40;;;;;;5040239;28;20040;-80
2022/05/26 05:12:07;;;;;;;2.97;2.25;;;16.90;54.30;;;;;;5045268;28;20032;-81
2022/05/26 05:14:45;;;;;;;4.65;2.20;;;17.10;54.10;;;;;;5039624;28;20029;-80
2022/05/26 05:17:12;;;;;;;5.70;2.65;;;17.30;53.80;;;;;;5057194;28;20056;-79
2022/05/26 05:19:38;;;;;;;2.95;2.05;;;17.40;53.60;;;;;;5042111;28;20048;-82
2022/05/26 05:22:30;;;;;;;7.30;2.83;;;17.60;53.60;;;;;;5029337;28;20029;-81
2022/05/26 05:25:14;;;;;;;6.97;2.80;;;17.70;53.50;;;;;;5044212;28;20124;-81
2022/05/26 05:27:46;;;;;;;6.47;2.70;;;17.90;53.30;;;;;;5041959;28;20044;-80
2022/05/26 05:30:19;;;;;;;3.47;2.58;;;17.90;53.20;;;;;;5040970;28;20123;-81
2022/05/26 05:33:03;;;;;;;4.22;2.55;;;18.00;53.20;;;;;;5040238;28;20037;-81
2022/05/26 05:35:37;;;;;;;5.93;3.05;;;18.00;53.10;;;;;;5040784;28;20051;-79
2022/05/26 05:38:03;;;;;;;4.93;2.92;;;18.10;53.10;;;;;;5042017;28;20037;-80
2022/05/26 05:40:30;;;;;;;4.45;2.58;;;18.20;52.80;;;;;;5039452;28;20043;-80
2022/05/26 05:42:56;;;;;;;4.10;2.72;;;18.40;52.80;;;;;;5038145;28;20053;-79
2022/05/26 05:45:22;;;;;;;5.43;3.42;;;18.50;52.70;;;;;;5042368;28;20044;-82
2022/05/26 05:47:48;;;;;;;10.57;5.80;;;18.60;52.50;;;;;;5039546;28;20385;-82
2022/05/26 05:50:14;;;;;;;9.32;6.03;;;18.70;52.30;;;;;;5040943;28;20051;-81
2022/05/26 05:52:40;;;;;;;14.00;5.65;;;18.90;52.20;;;;;;5042334;28;20068;-81
2022/05/26 05:55:06;;;;;;;10.60;5.00;;;19.00;52.20;;;;;;5028144;28;20037;-82
2022/05/26 05:57:32;;;;;;;8.65;5.10;;;19.10;52.10;;;;;;5042626;28;20461;-82
2022/05/26 05:59:58;;;;;;;7.18;4.50;;;19.20;52.00;;;;;;5040162;28;20033;-81
2022/05/26 06:02:24;;;;;;;4.50;3.47;;;19.30;52.10;;;;;;5023541;28;20041;-82
2022/05/26 06:04:50;;;;;;;4.75;3.72;;;19.40;52.10;;;;;;5041147;28;20064;-82
2022/05/26 06:07:19;;;;;;;7.55;3.65;;;19.40;52.00;;;;;;5042785;28;20051;-82
2022/05/26 06:09:46;;;;;;;4.45;3.25;;;19.50;51.90;;;;;;5056443;28;20408;-82
2022/05/26 06:12:13;;;;;;;6.40;3.58;;;19.60;51.90;;;;;;5035453;28;20033;-82
2022/05/26 06:14:42;;;;;;;4.82;3.30;;;19.70;52.00;;;;;;5026781;28;20510;-82
2022/05/26 06:17:09;;;;;;;4.32;2.90;;;19.70;52.00;;;;;;5044710;28;20516;-82
2022/05/26 06:19:37;;;;;;;9.25;2.80;;;19.80;52.20;;;;;;5039874;28;20695;-87
2022/05/26 06:22:15;;;;;;;5.40;3.05;;;19.80;52.30;;;;;;5043539;28;20159;-83
2022/05/26 06:24:41;;;;;;;6.43;3.08;;;19.90;52.40;;;;;;5039414;28;20037;-83
2022/05/26 06:29:55;;;;;;;3.65;2.88;;;20.00;51.80;;;;;;5040010;28;20571;-82
2022/05/26 06:37:52;;;;;;;6.60;2.88;;;20.20;51.50;;;;;;5040045;28;20420;-83
2022/05/26 06:40:18;;;;;;;5.75;2.90;;;20.30;51.60;;;;;;5041749;28;20128;-84
2022/05/26 06:42:46;;;;;;;5.15;3.42;;;20.30;51.40;;;;;;5010260;28;20523;-82
2022/05/26 06:45:14;;;;;;;6.13;3.33;;;20.40;51.30;;;;;;5040960;28;20078;-82
2022/05/26 06:47:40;;;;;;;6.05;3.20;;;20.40;51.20;;;;;;5042675;28;20029;-82
2022/05/26 06:50:08;;;;;;;6.65;3.40;;;20.50;51.20;;;;;;5040000;28;20053;-83
2022/05/26 06:52:34;;;;;;;4.43;3.65;;;20.50;51.10;;;;;;5039630;28;20044;-83
2022/05/26 06:55:04;;;;;;;7.55;3.35;;;20.60;51.30;;;;;;5040287;28;20060;-83
2022/05/26 06:57:30;;;;;;;5.88;3.58;;;20.60;50.70;;;;;;5022821;28;20033;-83
2022/05/26 06:59:56;;;;;;;14.30;8.68;;;20.70;50.70;;;;;;5060470;28;20044;-82
2022/05/26 07:02:22;;;;;;;12.30;8.57;;;20.70;50.70;;;;;;5011649;28;20033;-82
2022/05/26 07:04:48;;;;;;;11.73;6.97;;;20.70;50.70;;;;;;5041905;28;20083;-81
2022/05/26 07:07:15;;;;;;;10.13;6.03;;;20.70;50.70;;;;;;5038949;28;20033;-82
2022/05/26 07:09:42;;;;;;;8.25;5.00;;;20.70;50.70;;;;;;5039154;28;20329;-81
2022/05/26 07:12:08;;;;;;;9.82;4.50;;;20.80;50.70;;;;;;5039864;28;20120;-82
2022/05/26 07:14:35;;;;;;;9.88;4.78;;;20.80;50.70;;;;;;5010682;28;20159;-82
2022/05/26 07:17:01;;;;;;;8.45;4.22;;;20.80;50.30;;;;;;5040774;28;20025;-82
2022/05/26 07:19:27;;;;;;;9.05;4.50;;;20.80;50.20;;;;;;5043210;28;20040;-82
2022/05/26 07:21:53;;;;;;;10.85;4.45;;;20.80;50.20;;;;;;5038733;28;20037;-83
2022/05/26 07:24:21;;;;;;;7.75;4.68;;;20.80;50.30;;;;;;5009749;28;20048;-85
2022/05/26 07:26:48;;;;;;;7.63;3.88;;;20.80;50.30;;;;;;5039594;28;20117;-84
2022/05/26 07:29:15;;;;;;;8.77;4.50;;;20.80;50.50;;;;;;5037674;28;20450;-85
2022/05/26 07:31:42;;;;;;;8.80;4.50;;;20.70;50.40;;;;;;5038454;28;20127;-84
2022/05/26 07:34:08;;;;;;;10.05;4.60;;;20.70;50.50;;;;;;5036672;28;20157;-83
2022/05/26 07:42:09;;;;;;;7.80;3.83;;;20.70;50.40;;;;;;5021341;28;20048;-85
2022/05/26 07:44:38;;;;;;;4.88;3.40;;;20.60;50.20;;;;;;5040060;28;20044;-84
2022/05/26 07:47:05;;;;;;;6.75;3.15;;;20.60;49.80;;;;;;5027451;28;20021;-85
2022/05/26 07:49:44;;;;;;;8.55;2.95;;;20.60;49.60;;;;;;5042280;28;20496;-87
2022/05/26 07:52:10;;;;;;;9.43;2.95;;;20.60;49.50;;;;;;5025333;28;20159;-85
2022/05/26 07:54:38;;;;;;;5.32;2.70;;;20.60;49.50;;;;;;5040749;28;20037;-85
2022/05/26 07:57:05;;;;;;;5.60;3.75;;;20.50;49.60;;;;;;5044927;28;20037;-83
2022/05/26 07:59:32;;;;;;;9.82;2.92;;;20.50;49.70;;;;;;5030151;28;20033;-84
2022/05/26 08:01:58;;;;;;;6.65;3.42;;;20.50;49.90;;;;;;5042762;28;20068;-88
2022/05/26 08:04:24;;;;;;;7.93;3.88;;;20.50;50.10;;;;;;5042170;28;20045;-93
2022/05/26 08:06:51;;;;;;;5.32;3.10;;;20.40;50.10;;;;;;5046134;28;20037;-90
2022/05/26 08:09:20;;;;;;;8.25;3.80;;;20.40;50.00;;;;;;5032017;28;20036;-85
2022/05/26 08:11:46;;;;;;;7.15;3.70;;;20.40;50.00;;;;;;5062954;28;20040;-89
2022/05/26 08:14:12;;;;;;;7.38;3.22;;;20.40;50.10;;;;;;5035499;28;20029;-87
2022/05/26 08:16:41;;;;;;;9.20;4.30;;;20.40;50.10;;;;;;5049679;28;20042;-87
2022/05/26 08:19:08;;;;;;;10.85;4.53;;;20.40;50.10;;;;;;5045908;28;20037;-90
2022/05/26 08:21:35;;;;;;;6.47;4.28;;;20.40;49.40;;;;;;5050369;28;20071;-92
2022/05/26 08:24:02;;;;;;;9.82;4.10;;;20.40;49.10;;;;;;5051360;28;20048;-87
2022/05/26 08:26:29;;;;;;;7.22;3.60;;;20.30;48.90;;;;;;5048018;28;20072;-91
2022/05/26 08:28:58;;;;;;;6.65;3.75;;;20.30;49.20;;;;;;5006994;28;20103;-88
2022/05/26 08:31:25;;;;;;;5.45;3.10;;;20.30;49.30;;;;;;5030234;28;20060;-90
2022/05/26 08:33:51;;;;;;;4.07;3.08;;;20.30;49.40;;;;;;5061038;28;20044;-88
2022/05/26 08:36:20;;;;;;;4.88;3.55;;;20.30;49.50;;;;;;5018078;28;20044;-89
2022/05/26 08:38:47;;;;;;;6.13;3.13;;;20.20;49.70;;;;;;5027882;28;20530;-91
2022/05/26 08:41:19;;;;;;;4.50;2.80;;;20.30;49.80;;;;;;5037460;28;20033;-82
2022/05/26 08:44:01;;;;;;;8.73;3.72;;;20.30;50.00;;;;;;5023191;28;20057;-88
2022/05/26 08:46:44;;;;;;;5.15;2.95;;;20.30;49.90;;;;;;5022974;28;20092;-85
2022/05/26 08:49:30;;;;;;;6.05;2.75;;;20.20;50.20;;;;;;5021495;28;20095;-85
2022/05/26 08:52:16;;;;;;;4.38;2.50;;;20.20;50.20;;;;;;5020996;28;20052;-86
2022/05/26 08:54:58;;;;;;;9.73;3.42;;;20.20;50.30;;;;;;5054044;28;20112;-83
2022/05/26 08:57:42;;;;;;;3.55;2.58;;;20.20;50.50;;;;;;5037340;28;20622;-83
2022/05/26 09:00:13;;;;;;;4.60;2.72;;;20.20;50.80;;;;;;5022985;28;20048;-85
2022/05/26 09:02:39;;;;;;;4.55;2.67;;;20.20;50.90;;;;;;5009460;28;20114;-84
2022/05/26 09:05:13;;;;;;;7.45;2.72;;;20.20;51.00;;;;;;5022080;28;20068;-84
2022/05/26 09:13:41;;;;;;;9.55;3.33;;;20.10;51.00;;;;;;5039438;28;20528;-84
2022/05/26 09:16:09;;;;;;;2.72;2.33;;;20.10;51.10;;;;;;5040375;28;20049;-84
2022/05/26 09:18:36;;;;;;;3.70;2.90;;;20.10;51.30;;;;;;5055175;28;20806;-82
2022/05/26 09:21:28;;;;;;;5.50;3.08;;;20.10;51.60;;;;;;5027893;28;20510;-84
2022/05/26 09:24:17;;;;;;;10.15;3.35;;;20.10;51.90;;;;;;5040135;28;20049;-84
2022/05/26 09:27:03;;;;;;;5.47;2.60;;;20.10;52.10;;;;;;5058967;28;20029;-84
2022/05/26 09:29:33;;;;;;;5.85;3.00;;;20.10;52.20;;;;;;5056743;28;20097;-84
2022/05/26 09:32:01;;;;;;;5.10;2.83;;;20.10;52.10;;;;;;5040102;28;20044;-83
2022/05/26 09:34:32;;;;;;;4.88;2.55;;;20.10;52.10;;;;;;5044956;28;20520;-83
2022/05/26 09:37:03;;;;;;;4.35;3.13;;;20.10;52.00;;;;;;5041277;28;20041;-84
2022/05/26 09:39:39;;;;;;;5.72;2.53;;;20.10;51.40;;;;;;5040449;28;20062;-84
2022/05/26 09:42:06;;;;;;;7.22;3.28;;;20.10;51.00;;;;;;5074060;28;20033;-84
2022/05/26 09:44:48;;;;;;;4.40;2.70;;;20.10;50.80;;;;;;5044229;28;20071;-84
2022/05/26 09:47:20;;;;;;;6.55;2.75;;;20.10;50.90;;;;;;5043746;28;20082;-84
2022/05/26 09:49:50;;;;;;;2.42;2.13;;;20.10;51.00;;;;;;5041391;28;20565;-85
2022/05/26 09:52:19;;;;;;;7.85;2.53;;;20.10;51.20;;;;;;5041840;28;20515;-84
2022/05/26 09:54:47;;;;;;;6.28;2.70;;;20.00;51.20;;;;;;5040439;28;20044;-84
2022/05/26 09:57:15;;;;;;;4.20;2.45;;;20.10;51.10;;;;;;5043383;28;20558;-84
2022/05/26 09:59:42;;;;;;;4.47;2.60;;;20.10;51.10;;;;;;5043828;28;20033;-84
2022/05/26 10:02:22;;;;;;;6.22;2.80;;;20.10;51.30;;;;;;5040628;28;20039;-84
2022/05/26 10:04:55;;;;;;;4.53;2.50;;;20.10;51.50;;;;;;5042933;28;20503;-84
2022/05/26 10:07:27;;;;;;;3.97;2.63;;;20.10;51.50;;;;;;5039515;28;20078;-84
2022/05/26 10:10:01;;;;;;;4.82;2.63;;;20.10;51.50;;;;;;5042698;28;20031;-86
2022/05/26 10:12:34;;;;;;;2.80;2.50;;;20.10;51.40;;;;;;5043422;28;20025;-84
2022/05/26 10:15:09;;;;;;;3.53;2.42;;;20.10;51.40;;;;;;5039684;28;20064;-84
2022/05/26 10:17:56;;;;;;;4.22;3.03;;;20.10;51.40;;;;;;5041724;28;20065;-83
2022/05/26 10:20:51;;;;;;;4.70;2.53;;;20.10;51.30;;;;;;5043952;28;20108;-83
2022/05/26 10:23:54;;;;;;;4.82;2.50;;;20.10;51.30;;;;;;5042577;28;20148;-84
2022/05/26 10:26:26;;;;;;;4.95;2.38;;;20.10;51.20;;;;;;5038829;28;20057;-83
2022/05/26 10:29:14;;;;;;;4.07;2.13;;;20.10;51.20;;;;;;5042045;28;20104;-84
2022/05/26 10:32:00;;;;;;;5.22;2.83;;;20.10;51.00;;;;;;5038659;28;20507;-83
2022/05/26 10:34:32;;;;;;;4.95;2.42;;;20.10;50.90;;;;;;5028686;28;20044;-83
2022/05/26 10:37:07;;;;;;;4.13;2.65;;;20.10;50.90;;;;;;5040694;28;20037;-83
2022/05/26 10:39:43;;;;;;;4.65;2.78;;;20.10;50.80;;;;;;5057305;28;20533;-85
2022/05/26 10:42:16;;;;;;;3.45;2.55;;;20.10;50.80;;;;;;5038559;28;20056;-84
2022/05/26 10:44:51;;;;;;;4.88;2.53;;;20.20;50.80;;;;;;5042230;28;20041;-84
2022/05/26 10:47:23;;;;;;;2.70;2.50;;;20.10;50.70;;;;;;5037946;28;20029;-82
2022/05/26 10:50:39;;;;;;;3.75;2.60;;;20.10;50.70;;;;;;5040969;28;20449;-83
2022/05/26 10:53:15;;;;;;;2.40;2.20;;;20.20;50.70;;;;;;5017387;28;20065;-83
2022/05/26 10:56:04;;;;;;;5.10;2.42;;;20.20;50.70;;;;;;5037965;28;20083;-83
2022/05/26 10:58:39;;;;;;;2.85;2.00;;;20.20;50.80;;;;;;5056117;28;20033;-85
2022/05/26 11:01:16;;;;;;;3.40;2.30;;;20.20;50.80;;;;;;5024180;28;20484;-83
2022/05/26 11:03:48;;;;;;;3.38;2.30;;;20.20;50.70;;;;;;5043859;28;20407;-83
2022/05/26 11:06:30;;;;;;;3.65;2.55;;;20.20;50.80;;;;;;5039179;28;20048;-84
2022/05/26 11:09:22;;;;;;;4.22;2.35;;;20.20;51.00;;;;;;5039160;28;20037;-84
2022/05/26 11:11:52;;;;;;;3.45;2.08;;;20.20;50.90;;;;;;5039017;28;20033;-81
2022/05/26 11:17:42;;;;;;;3.85;2.30;;;20.20;51.00;;;;;;5038773;28;20041;-82
2022/05/26 11:20:18;;;;;;;4.88;2.00;;;20.20;50.90;;;;;;5028643;28;20048;-81
2022/05/26 11:22:48;;;;;;;4.50;2.28;;;20.20;50.80;;;;;;5057104;28;20037;-82
2022/05/26 11:25:19;;;;;;;4.05;2.28;;;20.30;50.50;;;;;;5052991;28;20040;-82
2022/05/26 11:27:58;;;;;;;4.32;2.30;;;20.30;50.10;;;;;;5041595;28;20503;-82
2022/05/26 11:36:29;;;;;;;3.00;2.15;;;20.30;50.00;;;;;;5042170;28;20155;-81
2022/05/26 11:38:57;;;;;;;2.35;2.15;;;20.30;50.00;;;;;;5044426;28;20037;-80
2022/05/26 11:41:46;;;;;;;2.45;1.90;;;20.30;49.90;;;;;;5043701;28;20029;-81
2022/05/26 11:44:12;;;;;;;2.17;1.98;;;20.30;49.90;;;;;;5042723;28;20048;-80
2022/05/26 11:47:11;;;;;;;3.60;2.00;;;20.30;49.70;;;;;;5059842;28;20029;-81
2022/05/26 11:49:43;;;;;;;2.70;1.90;;;20.30;49.60;;;;;;5046141;28;20118;-81
2022/05/26 11:52:27;;;;;;;6.35;1.83;;;20.30;49.60;;;;;;5026455;28;20033;-81
2022/05/26 11:54:53;;;;;;;4.40;2.10;;;20.30;49.60;;;;;;5029419;28;20503;-80
2022/05/26 11:57:38;;;;;;;2.70;2.22;;;20.30;49.70;;;;;;5042805;28;20056;-80
2022/05/26 12:00:22;;;;;;;4.43;2.40;;;20.30;49.60;;;;;;5044280;28;20404;-81
2022/05/26 12:02:53;;;;;;;5.03;2.13;;;20.30;49.80;;;;;;5042871;28;20040;-81
2022/05/26 12:05:28;;;;;;;4.45;2.13;;;20.30;48.80;;;;;;5042702;28;20029;-82
2022/05/26 12:08:06;;;;;;;2.55;2.20;;;20.30;49.00;;;;;;5042788;28;20048;-82
2022/05/26 12:10:50;;;;;;;2.30;2.10;;;20.30;49.00;;;;;;5026697;28;20078;-83
2022/05/26 12:13:28;;;;;;;1.92;1.75;;;20.30;49.20;;;;;;5044947;28;20397;-87
2022/05/26 12:16:14;;;;;;;3.17;1.98;;;20.30;49.20;;;;;;5047653;28;20052;-87
2022/05/26 12:18:59;;;;;;;6.00;2.55;;;20.30;49.30;;;;;;5044231;28;20033;-83
2022/05/26 12:21:46;;;;;;;5.03;2.22;;;20.30;49.40;;;;;;5046885;28;20067;-83
2022/05/26 12:24:31;;;;;;;4.03;2.40;;;20.30;49.20;;;;;;5045558;28;20033;-83
2022/05/26 12:26:58;;;;;;;5.22;2.10;;;20.30;49.30;;;;;;5048569;28;20866;-84
2022/05/26 12:29:48;;;;;;;4.40;2.42;;;20.30;49.30;;;;;;5043094;28;20462;-84
2022/05/26 12:32:26;;;;;;;3.92;2.20;;;20.30;49.20;;;;;;5042806;28;20044;-84
2022/05/26 12:35:13;;;;;;;3.78;2.30;;;20.30;49.10;;;;;;5043665;28;20029;-86
2022/05/26 12:38:11;;;;;;;6.18;2.30;;;20.30;49.10;;;;;;5046957;28;20041;-85
2022/05/26 12:40:49;;;;;;;2.33;1.90;;;20.30;49.20;;;;;;5038947;28;20039;-84
2022/05/26 12:43:52;;;;;;;2.40;1.65;;;20.30;49.10;;;;;;5060098;28;20045;-86
2022/05/26 12:46:50;;;;;;;6.80;2.30;;;20.30;48.90;;;;;;5063204;28;20033;-86
2022/05/26 12:49:35;;;;;;;3.78;2.05;;;20.30;49.10;;;;;;5043793;28;20092;-85
2022/05/26 12:52:12;;;;;;;;;;;20.40;49.20;;;;;;5041559;28;20036;-86
2022/05/26 12:55:05;;;;;;;5.35;2.20;;;20.30;49.00;;;;;;5043807;28;19916;-83
2022/05/26 12:57:31;;;;;;;3.50;1.95;;;20.30;49.10;;;;;;5045480;28;20553;-85
2022/05/26 13:00:25;;;;;;;6.25;2.25;;;20.30;48.90;;;;;;5044899;28;20041;-88
2022/05/26 13:03:07;;;;;;;2.35;2.10;;;20.30;49.00;;;;;;5041536;28;20041;-84
2022/05/26 13:05:37;;;;;;;2.58;2.10;;;20.30;48.90;;;;;;5041050;28;20021;-87
2022/05/26 13:08:05;;;;;;;6.65;2.20;;;20.30;49.00;;;;;;5045432;28;20040;-86
2022/05/26 13:10:35;;;;;;;5.30;2.70;;;20.30;49.00;;;;;;5047451;28;20147;-88
2022/05/26 13:13:06;;;;;;;4.18;2.40;;;20.30;48.60;;;;;;5045431;28;20041;-86
2022/05/26 13:15:32;;;;;;;4.20;2.70;;;20.30;48.30;;;;;;5047543;28;20063;-85
2022/05/26 13:17:58;;;;;;;4.55;2.58;;;20.30;48.30;;;;;;5045521;28;20064;-86
2022/05/26 13:20:35;;;;;;;4.40;2.22;;;20.40;48.20;;;;;;5044593;28;20067;-87
2022/05/26 13:23:03;;;;;;;3.92;2.45;;;20.40;48.20;;;;;;5009362;28;20501;-86
2022/05/26 13:25:32;;;;;;;4.10;2.58;;;20.40;48.90;;;;;;5044835;28;21498;-88
2022/05/26 13:28:08;;;;;;;5.63;2.15;;;20.30;48.30;;;;;;5040309;28;20040;-87
2022/05/26 13:33:29;;;;;;;4.72;2.03;;;20.30;46.90;;;;;;5041542;28;20128;-86
2022/05/26 13:36:00;;;;;;;4.25;1.90;;;20.40;46.60;;;;;;5038247;28;20048;-87
2022/05/26 13:38:34;;;;;;;3.25;1.98;;;20.30;47.00;;;;;;5038612;28;20029;-89
2022/05/26 13:41:03;;;;;;;5.85;2.17;;;20.30;47.30;;;;;;5251992;22;20144;-82
2022/05/26 13:43:32;;;;;;;2.00;1.88;;;20.30;47.40;;;;;;5003525;28;20034;-84
2022/05/26 13:46:00;;;;;;;7.50;2.78;;;20.30;47.10;;;;;;4987117;28;20444;-87
2022/05/26 13:48:42;;;;;;;4.53;2.30;;;20.30;47.40;;;;;;5004350;28;20037;-85
2022/05/26 13:51:33;;;;;;;6.63;2.10;;;20.30;47.60;;;;;;5021960;28;20078;-85
2022/05/26 13:54:27;;;;;;;6.35;2.50;;;20.30;47.40;;;;;;5009693;28;20589;-84